LFRN/RNS METAR and TAF weather

Enter ICAO airport designator
Station Type Date Time Source
LFRN METAR 2022/08/12 14:30 UTC NOAA

LFRN 121430Z AUTO VRB05KT CAVOK 35/08 Q1013 NOSIG


Station Type Date Time Source
LFRN Decoded METAR 2022/08/12 14:30 UTC NOAA

Rennes, France (LFRN) 48-04N 001-44W 37M
Aug 12, 2022 - 10:30 AM EDT / 2022.08.12 1430 UTC
Wind: Variable at 6 MPH (5 KT):0
Visibility: greater than 7 mile(s):0
Temperature: 95 F (35 C)
Dew Point: 46 F (8 C)
Relative Humidity: 19%
Pressure (altimeter): 29.91 in. Hg (1013 hPa)
ob: LFRN 121430Z AUTO VRB05KT CAVOK 35/08 Q1013 NOSIG
cycle: 14

Station Type Date Time Source
LFRN TAF 2022/08/12 12:21 UTC NOAA

TAF LFRN 121100Z 1212/1312 07008KT CAVOK
TEMPO 1218/1221 36010KT
BECMG 1222/1224 VRB03KT
BECMG 1310/1312 10010KT

Example: see airport list